Girvin, Texas
Current Conditions -  °F | °C
As of 11:53 AM on Monday 26 Jan 2015 (Local Time) from KFST Reporting Station
Clear Clear  
Wind Chill: 54°   Ceiling: Unl
Heat Index: 54°   Visibility: 10mi
Dew Point: 36°   Wind: 5mph
Humidity: 51%   Direction: 360°N
Pressure: 30.33"   Gusts: NA
Location:  31.06°N, 102.39°W
Report Text: KFST 261753Z AUTO 36004KT 10SM CLR 12/02 A3033 RMK AO2 SLP253 T01220022 10122 20039 50008
Loading
Personal Weather Stations






























Interactive Weather Map New forecast layout! Learn more

10-Day Weather Forecast

Advertisements
Track Severe Weather on mobile